createdAt,value
2019-02-09T00:02:33.313Z,99917.61
2019-02-09T00:05:04.532Z,99927.38
2019-02-09T00:07:33.157Z,99923.78
2019-02-09T00:10:05.176Z,99927.19
2019-02-09T00:12:39.319Z,99920.42
2019-02-09T00:15:24.014Z,99923.41
2019-02-09T00:17:55.139Z,99923.69
2019-02-09T00:20:24.171Z,99907.47
2019-02-09T00:22:52.554Z,99931.39
2019-02-09T00:25:26.995Z,99934.38
2019-02-09T00:28:05.073Z,99927.52
2019-02-09T00:30:33.505Z,99921.91
2019-02-09T00:33:05.661Z,99929.45
2019-02-09T00:35:35.053Z,99919.39
2019-02-09T00:38:03.482Z,99919.49
2019-02-09T00:40:32.186Z,99907.84
2019-02-09T00:43:01.976Z,99913.06
2019-02-09T00:45:32.190Z,99910.45
2019-02-09T00:48:02.312Z,99902.91
2019-02-09T00:50:30.593Z,99900.66
2019-02-09T00:52:58.888Z,99908.77
2019-02-09T00:55:31.912Z,99902.24
2019-02-09T00:58:00.132Z,99904.86
2019-02-09T01:00:32.997Z,99890.88
2019-02-09T01:03:03.615Z,99897.28
2019-02-09T01:05:48.867Z,99905.20
2019-02-09T01:08:17.053Z,99916.79
2019-02-09T01:10:53.569Z,99909.88
2019-02-09T01:13:24.843Z,99901.48
2019-02-09T01:15:53.023Z,99900.75
2019-02-09T01:18:21.397Z,99906.32
2019-02-09T01:20:52.931Z,99905.02
2019-02-09T01:23:21.062Z,99916.50
2019-02-09T01:25:50.152Z,99897.88
2019-02-09T01:28:24.265Z,99913.41
2019-02-09T01:30:55.042Z,99919.36
2019-02-09T01:33:29.380Z,99930.05
2019-02-09T01:35:57.619Z,99935.26
2019-02-09T01:38:29.358Z,99938.31
2019-02-09T01:40:57.467Z,99961.55
2019-02-09T01:43:25.842Z,99961.06
2019-02-09T01:45:58.307Z,99968.98
2019-02-09T01:48:26.491Z,99964.31
2019-02-09T01:50:57.169Z,99963.55
2019-02-09T01:53:27.877Z,99948.68
2019-02-09T01:55:56.152Z,99942.31
2019-02-09T01:58:26.451Z,99950.40
2019-02-09T02:01:00.694Z,99946.27
2019-02-09T02:03:31.277Z,99954.17
2019-02-09T02:06:02.100Z,99948.08
2019-02-09T02:08:30.439Z,99946.22
2019-02-09T02:10:58.711Z,99934.06
2019-02-09T02:13:29.798Z,99935.69
2019-02-09T02:16:00.900Z,99932.16
2019-02-09T02:18:33.415Z,99938.84
2019-02-09T02:21:03.335Z,99944.31
2019-02-09T02:23:32.420Z,99925.11
2019-02-09T02:26:04.508Z,99937.59
2019-02-09T02:28:32.627Z,99942.42
2019-02-09T02:31:02.331Z,99929.84
2019-02-09T02:33:30.430Z,99932.25
2019-02-09T02:35:58.814Z,99935.05
2019-02-09T02:38:32.845Z,99936.19
2019-02-09T02:41:03.522Z,99944.80
2019-02-09T02:43:34.006Z,99943.50
2019-02-09T02:46:05.711Z,99951.81
2019-02-09T02:48:33.846Z,99957.71
2019-02-09T02:51:02.829Z,99952.44
2019-02-09T02:53:33.679Z,99962.63
2019-02-09T02:56:01.900Z,99968.84
2019-02-09T02:58:33.468Z,99965.05
2019-02-09T03:01:02.611Z,99969.11
2019-02-09T03:03:30.941Z,99975.88
2019-02-09T03:06:03.341Z,99967.65
2019-02-09T03:08:33.721Z,99984.42
2019-02-09T03:11:04.018Z,99969.60
2019-02-09T03:13:32.275Z,99970.34
2019-02-09T03:16:00.655Z,99973.80
2019-02-09T03:18:33.233Z,99973.37
2019-02-09T03:21:01.387Z,99972.83
2019-02-09T03:23:29.751Z,99978.51
2019-02-09T03:25:58.420Z,99980.84
2019-02-09T03:28:28.242Z,99965.20
2019-02-09T03:30:56.554Z,99978.34
2019-02-09T03:33:24.885Z,99983.45
2019-02-09T03:35:52.965Z,99975.62
2019-02-09T03:38:21.232Z,99991.90
2019-02-09T03:40:52.353Z,99981.27
2019-02-09T03:43:20.322Z,99986.48
2019-02-09T03:45:50.747Z,99993.34
2019-02-09T03:48:19.002Z,99991.25
2019-02-09T03:50:48.634Z,99982.61
2019-02-09T03:53:18.948Z,99988.88
2019-02-09T03:55:47.036Z,99997.38
2019-02-09T03:58:27.440Z,100002.76
2019-02-09T04:00:58.068Z,99995.42
2019-02-09T04:03:29.428Z,100010.84
2019-02-09T04:05:59.289Z,100011.02
2019-02-09T04:08:27.552Z,100016.58
2019-02-09T04:11:00.871Z,100015.05
2019-02-09T04:13:29.128Z,100014.43
2019-02-09T04:16:01.531Z,100020.81
2019-02-09T04:18:34.664Z,100018.34
2019-02-09T04:21:03.224Z,100025.52
2019-02-09T04:23:31.409Z,100011.72
2019-02-09T04:25:59.668Z,100018.12
2019-02-09T04:28:28.679Z,100027.93
2019-02-09T04:31:06.800Z,100031.81
2019-02-09T04:33:37.600Z,100031.81
2019-02-09T04:36:10.895Z,100038.10
2019-02-09T04:38:39.501Z,100024.09
2019-02-09T04:41:09.408Z,100028.25
2019-02-09T04:43:38.879Z,100029.64
2019-02-09T04:46:12.907Z,100044.35
2019-02-09T04:48:46.908Z,100063.05
2019-02-09T04:51:19.548Z,100059.31
2019-02-09T04:53:52.538Z,100050.69
2019-02-09T04:56:31.521Z,100054.63
2019-02-09T04:59:00.764Z,100051.98
2019-02-09T05:01:29.579Z,100067.78
2019-02-09T05:03:58.556Z,100044.91
2019-02-09T05:06:28.982Z,100073.20
2019-02-09T05:08:58.287Z,100096.12
2019-02-09T05:11:28.957Z,100091.80
2019-02-09T05:14:00.273Z,100092.84
2019-02-09T05:16:34.377Z,100091.69
2019-02-09T05:19:06.067Z,100102.63
2019-02-09T05:21:38.295Z,100108.47
2019-02-09T05:24:08.612Z,100092.77
2019-02-09T05:26:40.563Z,100104.64
2019-02-09T05:29:12.473Z,100110.84
2019-02-09T05:31:47.777Z,100083.05
2019-02-09T05:34:16.547Z,100118.20
2019-02-09T05:36:45.115Z,100107.00
2019-02-09T05:39:16.474Z,100121.23
2019-02-09T05:41:53.140Z,100128.92
2019-02-09T05:44:22.819Z,100119.95
2019-02-09T05:46:54.379Z,100127.29
2019-02-09T05:49:23.762Z,100144.38
2019-02-09T05:51:58.781Z,100146.67
2019-02-09T05:54:27.203Z,100147.51
2019-02-09T05:56:55.282Z,100139.63
2019-02-09T05:59:23.356Z,100147.75
2019-02-09T06:01:57.793Z,100146.27
2019-02-09T06:04:28.900Z,100160.81
2019-02-09T06:06:56.888Z,100166.95
2019-02-09T06:09:27.154Z,100167.64
2019-02-09T06:11:55.391Z,100165.70
2019-02-09T06:14:23.516Z,100164.92
2019-02-09T06:16:54.370Z,100173.44
2019-02-09T06:19:22.432Z,100168.63
2019-02-09T06:21:54.764Z,100148.45
2019-02-09T06:24:22.727Z,100166.61
2019-02-09T06:26:52.824Z,100154.67
2019-02-09T06:29:27.197Z,100159.72
2019-02-09T06:31:55.239Z,100164.48
2019-02-09T06:34:23.244Z,100158.27
2019-02-09T06:36:51.462Z,100155.45
2019-02-09T06:39:19.730Z,100150.64
2019-02-09T06:41:50.253Z,100161.49
2019-02-09T06:44:18.352Z,100170.67
2019-02-09T06:46:46.603Z,100171.22
2019-02-09T06:49:14.677Z,100167.68
2019-02-09T06:51:42.785Z,100182.22
2019-02-09T06:54:10.772Z,100174.27
2019-02-09T06:56:43.509Z,100181.83
2019-02-09T06:59:13.061Z,100184.31
2019-02-09T07:01:48.554Z,100185.50
2019-02-09T07:04:13.470Z,100178.55
2019-02-09T07:06:41.724Z,100179.30
2019-02-09T07:09:09.880Z,100189.20
2019-02-09T07:11:38.014Z,100176.34
2019-02-09T07:14:06.637Z,100185.38
2019-02-09T07:16:34.837Z,100192.42
2019-02-09T07:19:05.305Z,100203.82
2019-02-09T07:21:35.048Z,100203.82
2019-02-09T07:24:03.240Z,100209.19
2019-02-09T07:26:33.587Z,100187.90
2019-02-09T07:29:01.830Z,100204.73
2019-02-09T07:31:29.946Z,100211.39
2019-02-09T07:33:58.010Z,100212.93
2019-02-09T07:36:26.117Z,100213.87
2019-02-09T07:38:55.723Z,100222.15
2019-02-09T07:41:26.755Z,100223.42
2019-02-09T07:43:56.252Z,100225.11
2019-02-09T07:46:24.631Z,100258.16
2019-02-09T07:48:52.493Z,100226.09
2019-02-09T07:51:20.613Z,100231.54
2019-02-09T07:53:48.542Z,100231.02
2019-02-09T07:56:16.429Z,100232.02
2019-02-09T07:58:47.456Z,100232.12
2019-02-09T08:01:15.368Z,100241.55
2019-02-09T08:03:43.987Z,100238.52
2019-02-09T08:06:12.375Z,100231.05
2019-02-09T08:08:48.159Z,100237.32
2019-02-09T08:11:17.543Z,100231.13
2019-02-09T08:13:45.642Z,100269.55
2019-02-09T08:16:13.827Z,100252.16
2019-02-09T08:18:41.947Z,100248.28
2019-02-09T08:21:09.806Z,100252.42
2019-02-09T08:23:38.794Z,100264.22
2019-02-09T08:26:07.183Z,100268.20
2019-02-09T08:28:35.087Z,100263.06
2019-02-09T08:31:03.049Z,100281.37
2019-02-09T08:33:31.049Z,100266.21
2019-02-09T08:35:58.910Z,100247.90
2019-02-09T08:38:27.056Z,100259.93
2019-02-09T08:40:55.170Z,100271.89
2019-02-09T08:43:23.361Z,100265.68
2019-02-09T08:45:51.308Z,100274.94
2019-02-09T08:48:19.280Z,100282.96
2019-02-09T08:50:57.594Z,100263.69
2019-02-09T08:53:25.458Z,100264.08
2019-02-09T08:55:53.410Z,100266.91
2019-02-09T08:58:22.573Z,100269.52
2019-02-09T09:00:50.441Z,100260.17
2019-02-09T09:03:18.321Z,100259.07
2019-02-09T09:05:46.465Z,100275.17
2019-02-09T09:08:14.374Z,100286.28
2019-02-09T09:10:42.272Z,100289.59
2019-02-09T13:07:01.718Z,100453.63
2019-02-09T13:09:32.697Z,100457.22
2019-02-09T13:12:00.545Z,100459.70
2019-02-09T13:14:28.630Z,100438.95
2019-02-09T13:16:56.799Z,100436.63
2019-02-09T13:19:24.634Z,100449.39
2019-02-09T13:21:53.361Z,100464.50
2019-02-09T13:24:21.268Z,100481.17
2019-02-09T13:26:49.113Z,100467.41
2019-02-09T13:29:17.530Z,100458.23
2019-02-09T13:31:45.492Z,100471.42
2019-02-09T13:34:13.490Z,100477.35
2019-02-09T13:36:42.873Z,100487.30
2019-02-09T13:39:10.769Z,100484.77
2019-02-09T13:44:13.631Z,100494.28
2019-02-09T13:46:41.598Z,100495.53
2019-02-09T13:49:09.413Z,100517.47
2019-02-09T13:51:37.981Z,100506.85
2019-02-09T13:54:05.839Z,100535.03
2019-02-09T13:56:33.852Z,100525.53
2019-02-09T13:59:01.912Z,100504.92
2019-02-09T14:01:30.167Z,100529.81
2019-02-09T14:03:58.207Z,100517.69
2019-02-09T14:06:26.421Z,100537.65
2019-02-09T14:08:54.688Z,100543.37
2019-02-09T14:11:23.030Z,100533.42
2019-02-09T14:13:50.976Z,100528.05
2019-02-09T14:16:22.300Z,100544.53
2019-02-09T14:18:50.359Z,100543.52
2019-02-09T14:21:18.259Z,100543.13
2019-02-09T14:23:48.751Z,100547.64
2019-02-09T14:26:16.581Z,100555.36
2019-02-09T14:28:44.451Z,100555.66
2019-02-09T14:31:12.445Z,100559.72
2019-02-09T14:33:40.347Z,100556.07
2019-02-09T14:36:08.308Z,100569.91
2019-02-09T14:38:36.370Z,100566.41
2019-02-09T14:41:04.534Z,100572.56
2019-02-09T14:43:32.500Z,100573.67
2019-02-09T14:46:02.245Z,100577.83
2019-02-09T14:48:30.164Z,100583.93
2019-02-09T14:50:58.230Z,100598.80
2019-02-09T14:53:26.172Z,100590.80
2019-02-09T14:55:54.155Z,100585.98
2019-02-09T14:58:22.403Z,100605.72
2019-02-09T15:00:52.205Z,100598.77
2019-02-09T15:03:25.908Z,100602.23
2019-02-09T15:05:49.810Z,100601.42
2019-02-09T15:08:17.833Z,100589.21
2019-02-09T15:10:45.898Z,100609.44
2019-02-09T15:13:14.591Z,100605.52
2019-02-09T15:16:42.289Z,100614.66
2019-02-09T15:19:10.158Z,100608.48
2019-02-09T15:21:38.059Z,100619.08
2019-02-09T15:24:06.105Z,100619.31
2019-02-09T15:26:33.918Z,100617.32
2019-02-09T15:29:01.912Z,100611.75
2019-02-09T15:31:29.757Z,100615.00
2019-02-09T15:33:57.692Z,100621.78
2019-02-09T15:36:25.705Z,100616.61
2019-02-09T15:38:53.566Z,100615.44
2019-02-09T15:41:21.465Z,100632.69
2019-02-09T15:43:49.788Z,100628.06
2019-02-09T15:46:17.632Z,100626.63
2019-02-09T15:48:45.539Z,100636.71
2019-02-09T15:51:13.595Z,100654.72
2019-02-09T15:53:41.607Z,100624.03
2019-02-09T15:56:09.485Z,100659.78
2019-02-09T15:58:37.419Z,100663.02
2019-02-09T16:01:07.328Z,100659.31
2019-02-09T16:03:35.206Z,100664.32
2019-02-09T16:06:03.182Z,100663.70
2019-02-09T16:08:31.069Z,100670.83
2019-02-09T16:11:10.157Z,100675.97
2019-02-09T16:13:45.336Z,100692.48
2019-02-09T16:16:08.580Z,100680.30
2019-02-09T16:18:36.530Z,100690.71
2019-02-09T16:21:04.406Z,100679.42
2019-02-09T16:23:32.385Z,100687.56
2019-02-09T16:26:00.397Z,100687.77
2019-02-09T16:28:28.312Z,100678.47
2019-02-09T16:30:57.508Z,100687.98
2019-02-09T16:33:25.688Z,100687.54
2019-02-09T16:35:53.877Z,100682.92
2019-02-09T16:38:21.701Z,100688.62
2019-02-09T16:40:49.707Z,100686.53
2019-02-09T16:43:17.784Z,100683.16
2019-02-09T16:45:45.657Z,100696.36
2019-02-09T16:48:13.491Z,100689.86
2019-02-09T16:50:41.464Z,100693.77
2019-02-09T16:53:09.298Z,100684.31
2019-02-09T16:55:41.983Z,100687.09
2019-02-09T16:58:10.004Z,100685.78
2019-02-09T17:00:39.810Z,100689.98
2019-02-09T17:03:09.062Z,100685.68
2019-02-09T17:05:37.105Z,100689.59
2019-02-09T17:08:05.468Z,100686.20
2019-02-09T17:10:33.395Z,100687.03
2019-02-09T17:13:01.589Z,100681.53
2019-02-09T17:15:35.459Z,100694.89
2019-02-09T17:18:04.583Z,100690.03
2019-02-09T17:20:32.547Z,100689.55
2019-02-09T17:23:02.903Z,100707.35
2019-02-09T17:25:30.886Z,100704.02
2019-02-09T17:27:58.964Z,100710.15
2019-02-09T17:30:31.721Z,100709.15
2019-02-09T17:32:59.840Z,100713.70
2019-02-09T17:35:27.709Z,100720.83
2019-02-09T17:37:55.545Z,100729.52
2019-02-09T17:40:27.097Z,100725.69
2019-02-09T17:42:55.015Z,100721.53
2019-02-09T17:45:33.908Z,100734.50
2019-02-09T17:48:01.874Z,100732.77
2019-02-09T17:50:29.811Z,100743.47
2019-02-09T17:52:57.757Z,100740.06
2019-02-09T17:55:25.610Z,100746.88
2019-02-09T17:57:53.593Z,100746.16
2019-02-09T18:00:35.133Z,100745.20
2019-02-09T18:03:03.015Z,100749.02
2019-02-09T18:05:31.002Z,100750.73
2019-02-09T18:07:58.895Z,100742.52
2019-02-09T18:10:26.907Z,100751.55
2019-02-09T18:13:01.448Z,100749.75
2019-02-09T18:15:29.469Z,100755.63
2019-02-09T18:17:57.553Z,100750.98
2019-02-09T18:20:25.433Z,100752.36
2019-02-09T18:22:53.246Z,100756.84
2019-02-09T18:25:24.940Z,100762.58
2019-02-09T18:27:52.817Z,100759.92
2019-02-09T18:30:21.654Z,100769.02
2019-02-09T18:32:49.703Z,100762.29
2019-02-09T18:35:17.879Z,100765.14
2019-02-09T18:37:45.785Z,100759.45
2019-02-09T18:40:17.394Z,100754.82
2019-02-09T18:42:45.333Z,100756.02
2019-02-09T18:45:16.995Z,100745.92
2019-02-09T18:47:46.853Z,100758.18
2019-02-09T18:50:16.820Z,100761.83
2019-02-09T18:52:45.345Z,100762.56
2019-02-09T18:55:17.910Z,100759.38
2019-02-09T18:57:45.875Z,100769.11
2019-02-09T19:00:19.649Z,100761.83
2019-02-09T19:02:47.878Z,100765.09
2019-02-09T19:05:17.842Z,100763.38
2019-02-09T19:07:45.899Z,100764.03
2019-02-09T19:10:20.193Z,100784.23
2019-02-09T19:12:50.999Z,100766.58
2019-02-09T19:15:19.529Z,100769.67
2019-02-09T19:17:50.831Z,100775.22
2019-02-09T19:20:23.010Z,100771.28
2019-02-09T19:22:51.121Z,100769.65
2019-02-09T19:25:19.869Z,100770.95
2019-02-09T19:27:47.721Z,100772.90
2019-02-09T19:30:19.060Z,100766.98
2019-02-09T19:32:50.731Z,100757.84
2019-02-09T19:35:18.789Z,100751.43
2019-02-09T19:37:48.818Z,100748.07
2019-02-09T19:40:20.411Z,100747.52
2019-02-09T19:42:48.764Z,100746.64
2019-02-09T19:45:21.519Z,100734.41
2019-02-09T19:47:49.708Z,100736.93
2019-02-09T19:50:17.791Z,100716.81
2019-02-09T19:52:47.282Z,100727.05
2019-02-09T19:55:18.480Z,100733.91
2019-02-09T19:57:49.291Z,100743.63
2019-02-09T20:00:32.130Z,100748.50
2019-02-09T20:03:00.162Z,100746.31
2019-02-09T20:05:29.097Z,100748.87
2019-02-09T20:07:57.284Z,100743.78
2019-02-09T20:10:31.709Z,100750.05
2019-02-09T20:12:59.800Z,100741.41
2019-02-09T20:15:30.766Z,100742.57
2019-02-09T20:18:04.100Z,100740.87
2019-02-09T20:20:32.346Z,100739.07
2019-02-09T20:23:00.450Z,100736.95
2019-02-09T20:25:29.136Z,100740.38
2019-02-09T20:27:57.540Z,100737.37
2019-02-09T20:30:31.892Z,100738.55
2019-02-09T20:33:00.247Z,100733.09
2019-02-09T20:35:28.681Z,100738.59
2019-02-09T20:37:57.050Z,100738.40
2019-02-09T20:40:37.611Z,100741.02
2019-02-09T20:43:07.585Z,100740.20
2019-02-09T20:45:38.043Z,100737.50
2019-02-09T20:48:06.966Z,100739.88
2019-02-09T20:50:35.042Z,100734.48
2019-02-09T20:53:03.227Z,100730.34
2019-02-09T20:55:31.408Z,100734.89
2019-02-09T20:59:04.317Z,100732.64
2019-02-09T21:01:32.403Z,100734.62
2019-02-09T21:04:00.353Z,100739.28
2019-02-09T21:06:28.578Z,100728.17
2019-02-09T21:08:56.538Z,100731.22
2019-02-09T21:11:24.497Z,100738.30
2019-02-09T21:13:54.038Z,100732.53
2019-02-09T21:16:23.741Z,100735.30
2019-02-09T21:18:51.723Z,100739.30
2019-02-09T21:21:19.688Z,100726.03
2019-02-09T21:23:47.645Z,100736.48
2019-02-09T21:26:16.102Z,100729.99
2019-02-09T21:28:46.510Z,100733.11
2019-02-09T21:31:14.515Z,100735.91
2019-02-09T21:33:47.194Z,100719.44
2019-02-09T21:36:15.313Z,100722.27
2019-02-09T21:38:43.195Z,100712.98
2019-02-09T21:41:11.259Z,100702.83
2019-02-09T21:43:39.308Z,100716.36
2019-02-09T21:46:09.774Z,100708.47
2019-02-09T21:48:37.882Z,100716.34
2019-02-09T21:51:07.139Z,100709.49
2019-02-09T21:53:35.044Z,100707.69
2019-02-09T21:56:07.002Z,100704.06
2019-02-09T21:58:35.266Z,100701.68
2019-02-09T22:01:09.375Z,100688.84
2019-02-09T22:03:42.525Z,100703.20
2019-02-09T22:06:24.869Z,100683.85
2019-02-09T22:08:52.984Z,100677.80
2019-02-09T22:11:21.049Z,100668.31
2019-02-09T22:13:49.082Z,100662.41
2019-02-09T22:16:17.195Z,100661.66
2019-02-09T22:18:45.271Z,100652.06
2019-02-09T22:21:13.443Z,100642.52
2019-02-09T22:23:41.616Z,100637.99
2019-02-09T22:26:13.234Z,100630.08
2019-02-09T22:28:39.606Z,100627.69
2019-02-09T22:31:07.790Z,100623.17
2019-02-09T22:33:36.042Z,100623.31
2019-02-09T22:36:05.931Z,100627.48
2019-02-09T22:38:34.111Z,100621.69
2019-02-09T22:41:02.148Z,100623.63
2019-02-09T22:43:30.164Z,100624.84
2019-02-09T22:45:58.268Z,100613.03
2019-02-09T22:48:26.219Z,100611.28
2019-02-09T22:50:54.594Z,100611.95
2019-02-09T22:53:22.650Z,100599.37
2019-02-09T22:55:50.871Z,100596.36
2019-02-09T22:58:18.910Z,100584.86
2019-02-09T23:01:08.336Z,100581.46
2019-02-09T23:03:55.235Z,100582.13
2019-02-09T23:06:52.342Z,100575.09
2019-02-09T23:09:19.666Z,100577.20
2019-02-09T23:11:48.886Z,100574.23
2019-02-09T23:14:17.125Z,100564.55
2019-02-09T23:16:45.127Z,100566.46
2019-02-09T23:19:13.217Z,100395.50
2019-02-09T23:21:41.396Z,100549.65
2019-02-09T23:24:09.444Z,100547.45
2019-02-09T23:26:37.483Z,100546.83
2019-02-09T23:29:05.502Z,100541.98
2019-02-09T23:31:43.632Z,100530.23
2019-02-09T23:34:11.598Z,100527.45
2019-02-09T23:36:39.698Z,100523.13
2019-02-09T23:39:11.610Z,100516.11
2019-02-09T23:41:39.651Z,100511.11
2019-02-09T23:44:07.649Z,100499.49
2019-02-09T23:46:38.489Z,100500.66
2019-02-09T23:49:06.583Z,100502.08
2019-02-09T23:51:34.675Z,100486.16
2019-02-09T23:54:02.810Z,100488.44
2019-02-09T23:56:33.825Z,100486.77
2019-02-09T23:59:01.885Z,100475.41
